createdAt,value
2022-11-16T00:01:39.930Z,100205.16
2022-11-16T00:04:06.547Z,100200.25
2022-11-16T00:06:33.071Z,100197.19
2022-11-16T00:09:20.914Z,100196.41
2022-11-16T00:11:50.246Z,100197.38
2022-11-16T00:14:17.600Z,100199.47
2022-11-16T00:16:44.222Z,100202.84
2022-11-16T00:19:11.536Z,100206.47
2022-11-16T00:21:38.073Z,100203.09
2022-11-16T00:24:05.408Z,100198.06
2022-11-16T00:26:31.820Z,100197.81
2022-11-16T00:28:58.553Z,100200.19
2022-11-16T00:31:25.192Z,100205.41
2022-11-16T00:33:52.011Z,100202.16
2022-11-16T00:36:18.685Z,100200.97
2022-11-16T00:38:45.087Z,100198.00
2022-11-16T00:41:11.591Z,100204.63
2022-11-16T00:43:38.127Z,100204.47
2022-11-16T00:46:05.260Z,100207.13
2022-11-16T00:48:32.070Z,100204.72
2022-11-16T00:50:58.783Z,100195.34
2022-11-16T00:53:25.198Z,100193.91
2022-11-16T00:55:51.868Z,100199.84
2022-11-16T00:58:18.259Z,100196.88
2022-11-16T01:00:44.729Z,100202.72
2022-11-16T01:03:11.215Z,100208.34
2022-11-16T01:05:37.697Z,100199.03
2022-11-16T01:08:04.738Z,100196.66
2022-11-16T01:10:31.283Z,100197.78
2022-11-16T01:12:57.915Z,100191.31
2022-11-16T01:15:26.779Z,100195.53
2022-11-16T01:17:55.051Z,100197.41
2022-11-16T01:20:24.491Z,100207.91
2022-11-16T01:22:51.633Z,100201.91
2022-11-16T01:25:18.189Z,100200.78
2022-11-16T01:27:44.716Z,100201.53
2022-11-16T01:30:14.054Z,100204.41
2022-11-16T01:32:40.459Z,100199.25
2022-11-16T01:35:07.466Z,100196.50
2022-11-16T01:37:33.903Z,100197.19
2022-11-16T01:40:00.371Z,100187.91
2022-11-16T01:42:28.864Z,100189.00
2022-11-16T01:44:57.797Z,100190.19
2022-11-16T01:47:24.234Z,100179.13
2022-11-16T01:50:01.048Z,100170.50
2022-11-16T01:52:31.571Z,100178.53
2022-11-16T01:54:58.296Z,100177.91
2022-11-16T01:57:32.663Z,100170.41
2022-11-16T02:00:00.917Z,100166.63
2022-11-16T02:02:27.488Z,100163.00
2022-11-16T02:04:55.436Z,100145.66
2022-11-16T02:07:31.865Z,100153.06
2022-11-16T02:10:08.680Z,100156.22
2022-11-16T02:12:53.688Z,100147.47
2022-11-16T02:15:43.382Z,100135.53
2022-11-16T02:18:36.148Z,100134.44
2022-11-16T02:21:33.909Z,100126.25
2022-11-16T02:24:35.442Z,100125.16
2022-11-16T02:27:18.118Z,100121.56
2022-11-16T02:29:54.572Z,100125.91
2022-11-16T02:32:45.112Z,100115.88
2022-11-16T02:35:23.810Z,100110.50
2022-11-16T02:37:59.049Z,100106.56
2022-11-16T02:40:30.688Z,100099.78
2022-11-16T02:43:04.146Z,100100.78
2022-11-16T02:45:33.842Z,100097.56
2022-11-16T02:48:07.406Z,100098.72
2022-11-16T02:50:35.565Z,100098.13
2022-11-16T02:53:02.862Z,100105.47
2022-11-16T02:55:32.559Z,100095.25
2022-11-16T02:58:01.899Z,100106.84
2022-11-16T03:00:35.879Z,100099.31
2022-11-16T03:03:08.827Z,100110.78
2022-11-16T03:05:41.707Z,100101.13
2022-11-16T03:08:39.191Z,100094.31
2022-11-16T03:11:27.021Z,100100.50
2022-11-16T03:14:03.643Z,100110.44
2022-11-16T03:16:34.864Z,100109.75
2022-11-16T03:19:05.238Z,100118.78
2022-11-16T03:22:07.896Z,100115.28
2022-11-16T03:24:34.450Z,100110.00
2022-11-16T03:27:19.777Z,100111.13
2022-11-16T03:30:06.151Z,100105.88
2022-11-16T03:32:51.173Z,100105.78
2022-11-16T03:35:30.496Z,100113.06
2022-11-16T03:37:59.794Z,100111.75
2022-11-16T03:40:30.317Z,100101.94
2022-11-16T03:42:59.396Z,100102.38
2022-11-16T03:45:26.551Z,100098.56
2022-11-16T03:47:52.953Z,100092.13
2022-11-16T03:50:19.467Z,100083.91
2022-11-16T03:52:45.946Z,100082.22
2022-11-16T03:55:12.343Z,100073.03
2022-11-16T03:57:38.788Z,100067.72
2022-11-16T04:00:06.887Z,100062.84
2022-11-16T04:02:33.302Z,100075.47
2022-11-16T04:05:18.227Z,100075.75
2022-11-16T04:08:03.236Z,100062.66
2022-11-16T04:10:48.385Z,100058.28
2022-11-16T04:13:34.519Z,100072.56
2022-11-16T04:16:19.519Z,100067.03
2022-11-16T04:19:04.656Z,100059.06
2022-11-16T04:21:59.393Z,100062.31
2022-11-16T04:24:30.040Z,100060.88
2022-11-16T04:27:18.897Z,100054.31
2022-11-16T04:29:45.409Z,100062.56
2022-11-16T04:32:30.769Z,100059.88
2022-11-16T04:35:16.162Z,100061.09
2022-11-16T04:37:48.635Z,100056.25
2022-11-16T04:40:27.904Z,100048.09
2022-11-16T04:42:56.346Z,100046.31
2022-11-16T04:45:42.406Z,100053.22
2022-11-16T04:48:09.821Z,100053.53
2022-11-16T04:50:36.883Z,100055.78
2022-11-16T04:53:04.380Z,100047.00
2022-11-16T04:55:31.103Z,100048.16
2022-11-16T04:57:57.476Z,100056.34
2022-11-16T05:00:24.029Z,100041.91
2022-11-16T05:02:50.606Z,100048.56
2022-11-16T05:05:17.453Z,100039.31
2022-11-16T05:07:44.120Z,100033.50
2022-11-16T05:10:11.505Z,100033.25
2022-11-16T05:12:38.310Z,100034.53
2022-11-16T05:15:06.195Z,100033.09
2022-11-16T05:17:33.211Z,100031.16
2022-11-16T05:20:18.289Z,100044.47
2022-11-16T05:22:44.707Z,100037.94
2022-11-16T05:25:12.340Z,100044.75
2022-11-16T05:27:38.775Z,100046.09
2022-11-16T05:30:06.586Z,100051.97
2022-11-16T05:32:33.030Z,100049.63
2022-11-16T05:34:59.405Z,100058.63
2022-11-16T05:37:26.819Z,100065.03
2022-11-16T05:39:54.801Z,100070.66
2022-11-16T05:42:21.233Z,100069.66
2022-11-16T05:44:47.766Z,100079.53
2022-11-16T05:47:14.298Z,100069.84
2022-11-16T05:49:40.707Z,100072.72
2022-11-16T05:52:07.196Z,100073.66
2022-11-16T05:54:33.598Z,100068.97
2022-11-16T05:57:00.037Z,100075.84
2022-11-16T05:59:27.732Z,100072.31
2022-11-16T06:01:54.129Z,100077.25
2022-11-16T06:04:24.361Z,100078.38
2022-11-16T06:06:51.275Z,100085.06
2022-11-16T06:09:17.680Z,100091.38
2022-11-16T06:11:44.175Z,100087.44
2022-11-16T06:14:10.623Z,100094.88
2022-11-16T06:16:37.087Z,100084.66
2022-11-16T06:19:03.551Z,100087.72
2022-11-16T06:21:30.119Z,100080.25
2022-11-16T06:23:56.539Z,100083.03
2022-11-16T06:26:22.964Z,100087.44
2022-11-16T06:28:49.477Z,100096.13
2022-11-16T06:31:16.020Z,100092.19
2022-11-16T06:33:42.512Z,100095.13
2022-11-16T06:36:09.066Z,100094.41
2022-11-16T06:38:35.687Z,100092.09
2022-11-16T06:41:03.087Z,100102.25
2022-11-16T06:43:29.578Z,100100.06
2022-11-16T06:46:00.328Z,100104.25
2022-11-16T06:48:26.860Z,100103.41
2022-11-16T06:50:53.875Z,100099.34
2022-11-16T06:53:24.595Z,100090.25
2022-11-16T06:55:54.138Z,100090.94
2022-11-16T06:58:20.542Z,100101.00
2022-11-16T07:00:47.022Z,100106.63
2022-11-16T07:03:13.460Z,100100.00
2022-11-16T07:05:41.902Z,100095.97
2022-11-16T07:08:08.361Z,100090.78
2022-11-16T07:10:34.829Z,100096.78
2022-11-16T07:13:03.380Z,100094.78
2022-11-16T07:15:30.343Z,100097.66
2022-11-16T07:17:56.770Z,100089.56
2022-11-16T07:20:23.244Z,100087.06
2022-11-16T07:22:49.702Z,100091.63
2022-11-16T07:25:16.216Z,100089.53
2022-11-16T07:27:42.732Z,100097.16
2022-11-16T07:30:09.615Z,100092.13
2022-11-16T07:32:36.005Z,100111.19
2022-11-16T07:35:02.500Z,100109.41
2022-11-16T07:37:28.961Z,100110.53
2022-11-16T07:39:55.416Z,100103.41
2022-11-16T07:42:21.806Z,100112.53
2022-11-16T07:44:48.274Z,100095.78
2022-11-16T07:47:14.744Z,100103.31
2022-11-16T07:49:41.214Z,100109.16
2022-11-16T07:52:10.766Z,100109.16
2022-11-16T07:54:37.372Z,100107.81
2022-11-16T07:57:03.843Z,100109.09
2022-11-16T07:59:30.268Z,100111.47
2022-11-16T08:01:59.198Z,100104.97
2022-11-16T08:04:25.845Z,100106.03
2022-11-16T08:06:52.376Z,100108.84
2022-11-16T08:09:18.907Z,100106.44
2022-11-16T08:11:47.072Z,100103.91
2022-11-16T08:14:13.910Z,100098.59
2022-11-16T08:16:40.349Z,100101.81
2022-11-16T08:19:06.884Z,100099.13
2022-11-16T08:21:33.294Z,100094.38
2022-11-16T08:23:59.743Z,100093.06
2022-11-16T08:26:27.527Z,100087.66
2022-11-16T08:28:55.607Z,100083.91
2022-11-16T08:31:24.876Z,100086.69
2022-11-16T08:33:54.460Z,100078.72
2022-11-16T08:36:22.556Z,100079.13
2022-11-16T08:38:50.642Z,100080.53
2022-11-16T08:41:18.331Z,100078.97
2022-11-16T08:43:47.063Z,100067.84
2022-11-16T08:46:14.365Z,100069.41
2022-11-16T08:48:41.598Z,100068.72
2022-11-16T08:51:19.431Z,100072.69
2022-11-16T08:53:48.202Z,100062.53
2022-11-16T08:56:16.443Z,100040.63
2022-11-16T08:58:47.267Z,100048.47
2022-11-16T09:01:19.974Z,100053.91
2022-11-16T09:03:46.810Z,100048.38
2022-11-16T09:06:13.673Z,100049.63
2022-11-16T09:08:41.958Z,100047.75
2022-11-16T09:11:11.571Z,100059.13
2022-11-16T09:13:38.087Z,100049.47
2022-11-16T09:16:05.142Z,100041.97
2022-11-16T09:18:32.110Z,100031.09
2022-11-16T09:20:59.292Z,100032.03
2022-11-16T09:23:26.028Z,100035.59
2022-11-16T09:25:54.170Z,100035.88
2022-11-16T09:28:22.568Z,100044.38
2022-11-16T09:30:51.108Z,100036.81
2022-11-16T09:33:17.799Z,100045.25
2022-11-16T09:35:44.260Z,100043.84
2022-11-16T09:38:13.638Z,100047.09
2022-11-16T09:40:46.064Z,100041.72
2022-11-16T09:43:31.092Z,100045.88
2022-11-16T09:46:17.722Z,100034.28
2022-11-16T09:48:44.850Z,100032.31
2022-11-16T09:51:15.634Z,100034.59
2022-11-16T09:53:48.048Z,100042.88
2022-11-16T09:56:23.529Z,100037.84
2022-11-16T09:59:19.469Z,100034.84
2022-11-16T10:01:58.705Z,100029.72
2022-11-16T10:04:47.250Z,100034.00
2022-11-16T10:07:22.491Z,100033.03
2022-11-16T10:09:49.340Z,100024.66
2022-11-16T10:12:34.884Z,100031.84
2022-11-16T10:15:36.509Z,100025.94
2022-11-16T10:18:28.489Z,100024.91
2022-11-16T10:21:27.617Z,100014.81
2022-11-16T10:24:16.940Z,100020.44
2022-11-16T10:27:22.275Z,100006.19
2022-11-16T10:30:06.999Z,100009.25
2022-11-16T10:32:53.647Z,100011.03
2022-11-16T10:35:30.833Z,100012.72
2022-11-16T10:37:59.795Z,100016.19
2022-11-16T10:40:29.369Z,100017.84
2022-11-16T10:43:20.556Z,100017.97
2022-11-16T10:46:00.391Z,100019.41
2022-11-16T10:48:37.379Z,100010.28
2022-11-16T10:51:05.065Z,100019.09
2022-11-16T10:53:35.451Z,100002.38
2022-11-16T10:56:14.207Z,100022.88
2022-11-16T10:58:49.811Z,100020.81
2022-11-16T11:01:28.891Z,100014.38
2022-11-16T11:03:55.361Z,100021.56
2022-11-16T11:06:26.479Z,100021.31
2022-11-16T11:08:52.956Z,100024.94
2022-11-16T11:11:40.735Z,100016.00
2022-11-16T11:14:15.674Z,100002.16
2022-11-16T11:16:42.265Z,100002.16
2022-11-16T11:19:23.967Z,100002.91
2022-11-16T11:21:50.291Z,100004.59
2022-11-16T11:24:43.319Z,99995.06
2022-11-16T11:27:05.417Z,99993.16
2022-11-16T11:29:35.813Z,99999.84
2022-11-16T11:32:07.946Z,99990.47
2022-11-16T11:34:41.732Z,100001.81
2022-11-16T11:37:15.948Z,100000.09
2022-11-16T11:39:42.791Z,100002.75
2022-11-16T11:42:12.260Z,100011.38
2022-11-16T11:44:51.865Z,100014.31
2022-11-16T11:47:58.198Z,100015.09
2022-11-16T11:50:44.569Z,100019.41
2022-11-16T11:53:29.569Z,100016.69
2022-11-16T11:55:58.285Z,100018.19
2022-11-16T11:58:33.920Z,100004.31
2022-11-16T12:01:25.491Z,100019.69
2022-11-16T12:03:52.191Z,100001.38
2022-11-16T12:06:38.746Z,100006.56
2022-11-16T12:09:20.816Z,100001.50
2022-11-16T12:11:59.506Z,100012.09
2022-11-16T12:14:51.305Z,100007.19
2022-11-16T12:17:55.111Z,100015.44
2022-11-16T12:20:45.947Z,100001.81
2022-11-16T12:23:37.686Z,100007.75
2022-11-16T12:26:04.122Z,100007.19
2022-11-16T12:28:58.516Z,100008.59
2022-11-16T12:31:33.731Z,100000.06
2022-11-16T12:34:21.909Z,99997.34
2022-11-16T12:37:20.793Z,100009.00
2022-11-16T12:40:05.618Z,100007.88
2022-11-16T12:42:42.487Z,100015.88
2022-11-16T12:45:36.918Z,100005.53
2022-11-16T12:48:22.361Z,100011.53
2022-11-16T12:51:27.540Z,100009.44
2022-11-16T12:54:09.070Z,100005.53
2022-11-16T12:56:54.863Z,100007.13
2022-11-16T12:59:49.204Z,100008.72
2022-11-16T13:02:53.709Z,100006.34
2022-11-16T13:05:28.863Z,100001.94
2022-11-16T13:08:22.243Z,99996.66
2022-11-16T13:10:53.363Z,99993.72
2022-11-16T13:13:41.446Z,99995.44
2022-11-16T13:16:09.543Z,99996.16
2022-11-16T13:18:41.401Z,99989.00
2022-11-16T13:21:18.998Z,99980.50
2022-11-16T13:24:41.418Z,99984.56
2022-11-16T13:27:29.370Z,99987.50
2022-11-16T13:30:22.108Z,99979.50
2022-11-16T13:33:03.586Z,99977.69
2022-11-16T13:35:30.284Z,99977.16
2022-11-16T13:37:56.715Z,99981.19
2022-11-16T13:40:27.261Z,99970.00
2022-11-16T13:43:04.830Z,99977.84
2022-11-16T13:45:55.429Z,99981.31
2022-11-16T13:48:35.514Z,99982.69
2022-11-16T13:51:05.719Z,99979.06
2022-11-16T13:56:51.296Z,99980.19
2022-11-16T13:59:25.237Z,99982.84
2022-11-16T14:02:22.404Z,99984.84
2022-11-16T14:05:00.414Z,99990.38
2022-11-16T14:07:31.546Z,99979.50
2022-11-16T14:09:58.517Z,99980.06
2022-11-16T14:12:53.963Z,99982.56
2022-11-16T14:15:25.147Z,99970.94
2022-11-16T14:17:54.445Z,99973.66
2022-11-16T14:20:41.177Z,99974.75
2022-11-16T14:23:22.510Z,99967.34
2022-11-16T14:26:03.533Z,99967.63
2022-11-16T14:28:53.761Z,99976.84
2022-11-16T14:31:31.691Z,99976.03
2022-11-16T14:34:00.423Z,99978.41
2022-11-16T14:36:42.853Z,99973.22
2022-11-16T14:39:24.113Z,99972.25
2022-11-16T14:41:51.517Z,99970.41
2022-11-16T14:44:21.769Z,99970.84
2022-11-16T14:46:48.469Z,99964.81
2022-11-16T14:49:17.839Z,99963.56
2022-11-16T14:51:48.796Z,99964.78
2022-11-16T14:54:29.563Z,99971.91
2022-11-16T14:57:04.378Z,99966.88
2022-11-16T14:59:31.610Z,99968.72
2022-11-16T15:02:03.169Z,99972.41
2022-11-16T15:04:29.813Z,99962.19
2022-11-16T15:07:01.627Z,99959.06
2022-11-16T15:09:37.873Z,99959.91
2022-11-16T15:12:25.093Z,99968.56
2022-11-16T15:14:54.498Z,99966.31
2022-11-16T15:17:27.210Z,99963.25
2022-11-16T15:19:56.840Z,99964.78
2022-11-16T15:22:25.205Z,99960.69
2022-11-16T15:25:01.741Z,99954.19
2022-11-16T15:27:36.639Z,99973.63
2022-11-16T15:30:25.078Z,99966.72
2022-11-16T15:32:52.884Z,99966.72
2022-11-16T15:35:24.759Z,99962.38
2022-11-16T15:38:15.832Z,99957.38
2022-11-16T15:41:04.041Z,99957.22
2022-11-16T15:43:45.355Z,99955.13
2022-11-16T15:46:23.339Z,99959.34
2022-11-16T15:48:50.423Z,99962.97
2022-11-16T15:51:23.079Z,99956.38
2022-11-16T15:53:54.466Z,99951.63
2022-11-16T15:56:26.946Z,99957.28
2022-11-16T15:58:55.814Z,99949.06
2022-11-16T16:01:23.466Z,99948.06
2022-11-16T16:04:01.485Z,99950.75
2022-11-16T16:06:52.104Z,99941.97
2022-11-16T16:09:30.655Z,99948.41
2022-11-16T16:12:19.729Z,99947.97
2022-11-16T16:14:48.517Z,99944.78
2022-11-16T16:17:24.222Z,99945.16
2022-11-16T16:20:00.846Z,99942.22
2022-11-16T16:22:37.133Z,99948.53
2022-11-16T16:25:06.307Z,99951.47
2022-11-16T16:27:39.918Z,99945.91
2022-11-16T16:30:07.464Z,99949.50
2022-11-16T16:32:37.011Z,99953.41
2022-11-16T16:35:07.635Z,99952.41
2022-11-16T16:37:36.019Z,99952.84
2022-11-16T16:40:03.503Z,99948.19
2022-11-16T16:42:29.889Z,99963.91
2022-11-16T16:44:59.493Z,99963.75
2022-11-16T16:47:25.925Z,99961.47
2022-11-16T16:49:52.291Z,99954.84
2022-11-16T16:52:18.896Z,99956.97
2022-11-16T16:54:45.319Z,99953.47
2022-11-16T16:57:16.457Z,99947.00
2022-11-16T16:59:48.285Z,99951.75
2022-11-16T17:02:16.289Z,99941.66
2022-11-16T17:04:43.985Z,99963.47
2022-11-16T17:07:10.455Z,99960.84
2022-11-16T17:09:36.849Z,99968.84
2022-11-16T17:12:03.768Z,99955.50
2022-11-16T17:14:30.886Z,99959.56
2022-11-16T17:16:57.319Z,99955.94
2022-11-16T17:19:24.007Z,99947.16
2022-11-16T17:21:53.427Z,99946.50
2022-11-16T17:24:20.040Z,99948.16
2022-11-16T17:26:49.476Z,99941.19
2022-11-16T17:29:16.399Z,99943.69
2022-11-16T17:31:44.704Z,99952.59
2022-11-16T17:34:13.702Z,99959.91
2022-11-16T17:36:40.774Z,99956.16
2022-11-16T17:39:07.220Z,99963.81
2022-11-16T17:41:33.686Z,99962.31
2022-11-16T17:44:00.308Z,99968.88
2022-11-16T17:46:26.753Z,99962.16
2022-11-16T17:48:53.163Z,99966.94
2022-11-16T17:51:21.450Z,99969.03
2022-11-16T17:53:49.702Z,99965.63
2022-11-16T17:56:18.810Z,99963.66
2022-11-16T17:58:45.418Z,99964.53
2022-11-16T18:01:13.118Z,99965.63
2022-11-16T18:03:40.047Z,99975.84
2022-11-16T18:06:09.185Z,99977.03
2022-11-16T18:08:36.787Z,99967.84
2022-11-16T18:11:15.446Z,99979.72
2022-11-16T18:13:43.288Z,99969.13
2022-11-16T18:16:18.382Z,99956.25
2022-11-16T18:18:46.691Z,99970.75
2022-11-16T18:21:20.413Z,99967.16
2022-11-16T18:23:48.013Z,99964.44
2022-11-16T18:26:20.526Z,99970.28
2022-11-16T18:28:51.576Z,99970.50
2022-11-16T18:31:22.666Z,99968.28
2022-11-16T18:33:49.631Z,99963.22
2022-11-16T18:36:17.217Z,99962.09
2022-11-16T18:38:43.728Z,99958.06
2022-11-16T18:41:12.896Z,99964.56
2022-11-16T18:44:02.542Z,99968.66
2022-11-16T18:46:32.842Z,99964.59
2022-11-16T18:48:59.997Z,99960.16
2022-11-16T18:51:27.801Z,99952.47
2022-11-16T18:53:55.206Z,99951.19
2022-11-16T18:56:22.108Z,99957.59
2022-11-16T18:58:51.431Z,99960.13
2022-11-16T19:01:21.744Z,99960.16
2022-11-16T19:03:48.374Z,99958.31
2022-11-16T19:06:15.543Z,99955.75
2022-11-16T19:08:42.457Z,99964.72
2022-11-16T19:11:14.396Z,99961.09
2022-11-16T19:13:42.705Z,99957.47
2022-11-16T19:16:10.847Z,99954.28
2022-11-16T19:18:37.500Z,99956.94
2022-11-16T19:21:11.521Z,99966.59
2022-11-16T19:23:42.919Z,99960.81
2022-11-16T19:26:12.269Z,99961.38
2022-11-16T19:28:43.536Z,99959.84
2022-11-16T19:31:12.194Z,99965.88
2022-11-16T19:33:39.486Z,99958.75
2022-11-16T19:36:13.760Z,99968.81
2022-11-16T19:38:40.428Z,99965.19
2022-11-16T19:41:08.157Z,99958.06
2022-11-16T19:43:35.040Z,99962.13
2022-11-16T19:46:04.003Z,99961.69
2022-11-16T19:48:32.289Z,99971.06
2022-11-16T19:51:19.879Z,99955.50
2022-11-16T19:53:46.883Z,99970.22
2022-11-16T19:56:15.628Z,99973.28
2022-11-16T19:58:43.054Z,99973.28
2022-11-16T20:01:20.990Z,99974.63
2022-11-16T20:03:48.949Z,99974.09
2022-11-16T20:06:21.472Z,99968.66
2022-11-16T20:08:50.699Z,99975.63
2022-11-16T20:11:20.617Z,99975.66
2022-11-16T20:13:52.055Z,99973.25
2022-11-16T20:16:20.453Z,99973.81
2022-11-16T20:18:47.573Z,99980.22
2022-11-16T20:21:21.299Z,99990.16
2022-11-16T20:23:47.883Z,99975.78
2022-11-16T20:26:15.195Z,99981.84
2022-11-16T20:28:42.821Z,99985.81
2022-11-16T20:31:14.432Z,99983.31
2022-11-16T20:33:41.018Z,99994.91
2022-11-16T20:36:11.825Z,99991.13
2022-11-16T20:38:39.089Z,99996.91
2022-11-16T20:41:09.416Z,99996.72
2022-11-16T20:43:36.322Z,99994.81
2022-11-16T20:46:02.930Z,99991.97
2022-11-16T20:48:29.404Z,99992.75
2022-11-16T20:50:55.850Z,99987.34
2022-11-16T20:53:22.570Z,99985.03
2022-11-16T20:55:49.858Z,99991.97
2022-11-16T20:58:22.475Z,99992.09
2022-11-16T21:00:50.148Z,99993.72
2022-11-16T21:03:17.112Z,99996.81
2022-11-16T21:05:45.059Z,100004.19
2022-11-16T21:08:12.263Z,99994.84
2022-11-16T21:10:39.751Z,99994.34
2022-11-16T21:13:25.951Z,99993.13
2022-11-16T21:16:01.330Z,99998.44
2022-11-16T21:18:30.906Z,99994.81
2022-11-16T21:20:59.766Z,99997.34
2022-11-16T21:23:28.295Z,99990.63
2022-11-16T21:25:55.088Z,99998.03
2022-11-16T21:28:25.422Z,99994.59
2022-11-16T21:31:03.634Z,99985.66
2022-11-16T21:33:30.235Z,99993.66
2022-11-16T21:35:56.857Z,99993.09
2022-11-16T21:38:27.868Z,99991.06
2022-11-16T21:40:54.266Z,100002.13
2022-11-16T21:43:20.668Z,99994.72
2022-11-16T21:45:48.252Z,99994.31
2022-11-16T21:48:14.790Z,99997.16
2022-11-16T21:50:42.483Z,99995.16
2022-11-16T21:53:09.585Z,100004.63
2022-11-16T21:55:36.143Z,100011.53
2022-11-16T21:58:03.592Z,100004.81
2022-11-16T22:00:30.182Z,100005.25
2022-11-16T22:02:56.558Z,99999.94
2022-11-16T22:05:41.484Z,99987.59
2022-11-16T22:08:11.470Z,99989.34
2022-11-16T22:10:38.091Z,99990.59
2022-11-16T22:13:04.624Z,99994.19
2022-11-16T22:15:31.090Z,99993.75
2022-11-16T22:17:57.468Z,99989.34
2022-11-16T22:20:23.876Z,99989.28
2022-11-16T22:22:50.293Z,100001.69
2022-11-16T22:25:17.068Z,100005.84
2022-11-16T22:28:13.528Z,100002.09
2022-11-16T22:30:33.263Z,99993.41
2022-11-16T22:32:59.705Z,99987.13
2022-11-16T22:35:26.236Z,99988.19
2022-11-16T22:37:52.844Z,99992.47
2022-11-16T22:40:19.268Z,99995.16
2022-11-16T22:42:46.013Z,99991.28
2022-11-16T22:45:12.415Z,99987.22
2022-11-16T22:47:38.851Z,99983.88
2022-11-16T22:50:05.700Z,99968.66
2022-11-16T22:52:32.113Z,99976.63
2022-11-16T22:54:58.511Z,99974.63
2022-11-16T22:57:24.919Z,99979.78
2022-11-16T22:59:51.349Z,99988.00
2022-11-16T23:02:17.797Z,99972.69
2022-11-16T23:04:44.206Z,99986.31
2022-11-16T23:07:10.656Z,99981.25
2022-11-16T23:09:37.086Z,99974.97
2022-11-16T23:12:22.151Z,99971.81
2022-11-16T23:15:07.004Z,99968.91
2022-11-16T23:17:33.393Z,99976.03
2022-11-16T23:20:18.276Z,99964.66
2022-11-16T23:23:03.381Z,99961.41
2022-11-16T23:25:48.519Z,99959.69
2022-11-16T23:28:16.579Z,99951.28
2022-11-16T23:30:43.037Z,99956.72
2022-11-16T23:33:10.160Z,99958.91
2022-11-16T23:35:36.813Z,99960.47
2022-11-16T23:38:05.828Z,99960.94
2022-11-16T23:40:34.667Z,99953.13
2022-11-16T23:43:19.791Z,99963.47
2022-11-16T23:45:46.260Z,99954.66
2022-11-16T23:48:15.428Z,99949.72
2022-11-16T23:50:42.443Z,99967.94
2022-11-16T23:53:10.064Z,99950.34
2022-11-16T23:55:41.011Z,99943.78
2022-11-16T23:58:12.471Z,99941.66
